createdAt,value
2023-04-27T00:04:21.261Z,18.99
2023-04-27T00:09:24.219Z,18.97
2023-04-27T00:14:28.873Z,18.96
2023-04-27T00:19:30.793Z,18.94
2023-04-27T00:24:32.826Z,18.94
2023-04-27T00:29:35.076Z,18.95
2023-04-27T00:34:37.745Z,18.71
2023-04-27T00:39:41.144Z,18.70
2023-04-27T00:44:43.578Z,18.68
2023-04-27T00:49:46.356Z,18.65
2023-04-27T00:54:51.143Z,18.74
2023-04-27T00:59:55.831Z,18.68
2023-04-27T01:04:58.189Z,18.56
2023-04-27T01:10:00.529Z,18.61
2023-04-27T01:15:02.751Z,18.43
2023-04-27T01:20:08.020Z,18.46
2023-04-27T01:25:13.190Z,18.41
2023-04-27T01:30:16.393Z,18.43
2023-04-27T01:35:18.583Z,18.41
2023-04-27T01:40:21.254Z,18.34
2023-04-27T01:45:24.772Z,18.28
2023-04-27T01:50:28.764Z,18.12
2023-04-27T01:55:31.529Z,17.99
2023-04-27T02:00:34.016Z,17.86
2023-04-27T02:05:36.637Z,17.83
2023-04-27T02:10:38.774Z,17.80
2023-04-27T02:15:41.340Z,17.80
2023-04-27T02:20:43.604Z,17.76
2023-04-27T02:25:47.131Z,17.70
2023-04-27T02:30:49.813Z,17.60
2023-04-27T02:35:51.681Z,17.57
2023-04-27T02:40:55.231Z,17.49
2023-04-27T02:46:03.450Z,17.40
2023-04-27T02:51:07.085Z,17.18
2023-04-27T02:56:09.084Z,17.37
2023-04-27T03:01:11.232Z,17.28
2023-04-27T03:06:13.414Z,17.24
2023-04-27T03:11:15.441Z,17.15
2023-04-27T03:16:17.857Z,17.20
2023-04-27T03:21:21.761Z,17.10
2023-04-27T03:26:24.586Z,16.97
2023-04-27T03:31:27.085Z,16.88
2023-04-27T03:36:29.547Z,16.79
2023-04-27T03:41:31.841Z,16.73
2023-04-27T03:46:35.042Z,16.76
2023-04-27T03:51:38.732Z,16.75
2023-04-27T03:56:41.087Z,16.81
2023-04-27T04:01:43.844Z,16.79
2023-04-27T04:06:46.138Z,16.72
2023-04-27T04:11:48.242Z,16.70
2023-04-27T04:16:51.228Z,16.75
2023-04-27T04:21:57.407Z,16.77
2023-04-27T04:27:07.498Z,16.77
2023-04-27T04:32:09.865Z,16.74
2023-04-27T04:37:13.207Z,16.74
2023-04-27T04:42:16.175Z,16.73
2023-04-27T04:47:19.184Z,16.75
2023-04-27T04:52:21.957Z,16.73
2023-04-27T04:57:24.069Z,16.73
2023-04-27T05:02:26.452Z,16.74
2023-04-27T05:07:29.134Z,16.70
2023-04-27T05:12:31.460Z,16.67
2023-04-27T05:17:33.776Z,16.63
2023-04-27T05:22:36.826Z,16.57
2023-04-27T05:27:41.278Z,16.48
2023-04-27T05:32:43.302Z,16.40
2023-04-27T05:37:45.648Z,16.38
2023-04-27T05:42:47.996Z,16.43
2023-04-27T05:47:50.218Z,16.49
2023-04-27T05:52:53.925Z,16.57
2023-04-27T05:58:07.024Z,16.60
2023-04-27T06:03:13.354Z,16.63
2023-04-27T06:08:15.878Z,16.61
2023-04-27T06:13:18.478Z,16.58
2023-04-27T06:18:20.598Z,16.60
2023-04-27T06:23:23.244Z,16.65
2023-04-27T06:28:25.688Z,16.72
2023-04-27T06:33:27.846Z,16.81
2023-04-27T06:38:30.024Z,16.80
2023-04-27T06:43:32.107Z,16.99
2023-04-27T06:48:37.331Z,17.22
2023-04-27T06:53:40.806Z,17.33
2023-04-27T06:58:42.940Z,17.28
2023-04-27T07:03:46.806Z,17.29
2023-04-27T07:08:50.389Z,17.29
2023-04-27T07:13:53.113Z,17.45
2023-04-27T07:18:55.127Z,17.60
2023-04-27T07:23:57.404Z,17.94
2023-04-27T07:28:59.616Z,18.22
2023-04-27T07:34:01.545Z,18.47
2023-04-27T07:39:05.060Z,18.34
2023-04-27T07:44:07.016Z,18.37
2023-04-27T07:49:08.951Z,18.82
2023-04-27T07:54:11.205Z,19.26
2023-04-27T07:59:15.908Z,19.61
2023-04-27T08:04:19.187Z,19.89
2023-04-27T08:09:21.591Z,20.13
2023-04-27T08:14:24.089Z,20.26
2023-04-27T08:19:26.265Z,20.40
2023-04-27T08:24:28.385Z,20.53
2023-04-27T08:29:30.861Z,20.70
2023-04-27T08:34:33.254Z,21.11
2023-04-27T08:39:35.339Z,21.66
2023-04-27T08:44:44.003Z,22.40
2023-04-27T08:49:46.067Z,23.30
2023-04-27T08:54:48.092Z,23.76
2023-04-27T09:00:00.426Z,23.80
2023-04-27T09:05:03.118Z,24.48
2023-04-27T09:10:06.254Z,24.30
2023-04-27T09:15:08.939Z,24.54
2023-04-27T09:20:13.559Z,26.12
2023-04-27T09:25:29.858Z,26.66
2023-04-27T09:30:31.987Z,26.43
2023-04-27T09:35:34.455Z,26.57
2023-04-27T09:40:43.575Z,26.43
2023-04-27T09:45:58.852Z,25.95
2023-04-27T09:51:09.300Z,26.03
2023-04-27T09:56:48.711Z,25.88
2023-04-27T10:01:58.142Z,26.13
2023-04-27T10:07:01.380Z,26.15
2023-04-27T10:12:21.660Z,26.32
2023-04-27T10:17:30.924Z,26.70
2023-04-27T10:22:39.623Z,27.59
2023-04-27T10:27:41.740Z,27.43
2023-04-27T10:33:01.223Z,27.79
2023-04-27T10:38:18.737Z,28.58
2023-04-27T10:43:27.614Z,29.53
2023-04-27T10:48:30.632Z,30.01
2023-04-27T10:53:36.972Z,30.57
2023-04-27T11:03:49.143Z,30.53
2023-04-27T11:08:51.768Z,30.48
2023-04-27T11:13:53.974Z,30.28
2023-04-27T11:18:57.429Z,30.27
2023-04-27T11:24:08.530Z,30.65
2023-04-27T11:29:12.619Z,30.50
2023-04-27T11:34:19.691Z,30.46
2023-04-27T11:39:23.448Z,30.67
2023-04-27T11:44:27.755Z,30.55
2023-04-27T11:49:29.964Z,30.16
2023-04-27T11:54:32.563Z,30.09
2023-04-27T11:59:34.361Z,29.97
2023-04-27T12:04:36.802Z,29.80
2023-04-27T12:09:38.826Z,29.95
2023-04-27T12:14:41.497Z,29.88
2023-04-27T12:19:43.716Z,29.69
2023-04-27T12:24:45.690Z,29.47
2023-04-27T12:29:47.668Z,29.57
2023-04-27T12:34:49.663Z,29.25
2023-04-27T12:39:51.946Z,29.41
2023-04-27T12:44:55.960Z,29.14
2023-04-27T12:49:58.149Z,29.09
2023-04-27T12:55:00.126Z,29.22
2023-04-27T13:00:06.213Z,29.05
2023-04-27T13:05:09.836Z,29.10
2023-04-27T13:10:12.375Z,28.93
2023-04-27T13:15:14.844Z,28.82
2023-04-27T13:20:17.436Z,28.75
2023-04-27T13:25:20.260Z,28.75
2023-04-27T13:30:22.221Z,28.68
2023-04-27T13:35:25.065Z,28.77
2023-04-27T13:40:27.393Z,28.82
2023-04-27T13:45:29.629Z,28.97
2023-04-27T13:50:32.204Z,29.04
2023-04-27T13:55:35.487Z,29.00
2023-04-27T14:00:38.157Z,28.99
2023-04-27T14:05:39.965Z,29.17
2023-04-27T14:10:42.254Z,29.08
2023-04-27T14:15:44.549Z,29.17
2023-04-27T14:20:46.676Z,29.34
2023-04-27T14:25:48.690Z,29.35
2023-04-27T14:30:50.868Z,29.31
2023-04-27T14:35:53.199Z,29.25
2023-04-27T14:40:55.281Z,29.29
2023-04-27T14:46:05.091Z,29.32
2023-04-27T14:51:11.814Z,29.23
2023-04-27T14:56:13.848Z,29.35
2023-04-27T15:01:18.051Z,29.42
2023-04-27T15:06:22.099Z,29.22
2023-04-27T15:11:24.731Z,29.34
2023-04-27T15:16:27.049Z,29.17
2023-04-27T15:21:42.102Z,29.38
2023-04-27T15:26:51.045Z,29.19
2023-04-27T15:31:53.601Z,29.14
2023-04-27T15:36:56.020Z,29.22
2023-04-27T15:42:01.013Z,29.21
2023-04-27T15:47:03.491Z,29.32
2023-04-27T15:52:05.630Z,29.14
2023-04-27T15:57:08.059Z,29.16
2023-04-27T16:02:10.305Z,29.16
2023-04-27T16:07:12.425Z,29.17
2023-04-27T16:12:14.553Z,29.33
2023-04-27T16:17:18.830Z,29.32
2023-04-27T16:22:22.225Z,29.46
2023-04-27T16:27:24.324Z,29.59
2023-04-27T16:32:26.881Z,29.65
2023-04-27T16:37:29.124Z,29.60
2023-04-27T16:42:31.223Z,29.28
2023-04-27T16:47:33.898Z,29.35
2023-04-27T16:52:36.091Z,29.23
2023-04-27T16:57:41.509Z,29.12
2023-04-27T17:02:44.222Z,29.12
2023-04-27T17:07:46.482Z,29.06
2023-04-27T17:12:48.569Z,28.85
2023-04-27T17:17:50.941Z,28.87
2023-04-27T17:22:53.356Z,28.66
2023-04-27T17:27:56.663Z,28.69
2023-04-27T17:32:59.071Z,28.63
2023-04-27T17:38:01.214Z,28.54
2023-04-27T17:43:03.203Z,28.42
2023-04-27T17:48:07.035Z,28.36
2023-04-27T17:53:09.112Z,28.24
2023-04-27T17:58:11.617Z,28.12
2023-04-27T18:03:13.891Z,28.07
2023-04-27T18:08:20.421Z,28.15
2023-04-27T18:13:22.482Z,28.11
2023-04-27T18:18:25.517Z,28.06
2023-04-27T18:23:27.768Z,27.79
2023-04-27T18:28:29.763Z,27.65
2023-04-27T18:33:32.173Z,27.54
2023-04-27T18:38:34.896Z,27.51
2023-04-27T18:43:37.232Z,27.37
2023-04-27T18:48:39.102Z,27.24
2023-04-27T18:53:41.117Z,27.06
2023-04-27T18:58:43.225Z,26.95
2023-04-27T19:03:45.382Z,26.84
2023-04-27T19:08:47.604Z,26.57
2023-04-27T19:13:51.028Z,26.31
2023-04-27T19:18:54.923Z,26.10
2023-04-27T19:23:57.065Z,25.92
2023-04-27T19:28:59.505Z,25.86
2023-04-27T19:34:04.226Z,25.77
2023-04-27T19:39:07.107Z,25.59
2023-04-27T19:44:09.242Z,25.57
2023-04-27T19:49:11.263Z,25.48
2023-04-27T19:54:13.411Z,25.43
2023-04-27T19:59:15.617Z,25.35
2023-04-27T20:04:18.718Z,25.21
2023-04-27T20:09:23.360Z,25.08
2023-04-27T20:14:29.662Z,25.01
2023-04-27T20:19:32.472Z,24.95
2023-04-27T20:24:35.823Z,24.88
2023-04-27T20:29:38.230Z,24.76
2023-04-27T20:34:40.309Z,24.66
2023-04-27T20:39:42.390Z,24.33
2023-04-27T20:44:55.351Z,24.21
2023-04-27T20:49:57.229Z,24.10
2023-04-27T20:55:01.224Z,23.98
2023-04-27T21:00:04.902Z,23.95
2023-04-27T21:05:07.654Z,24.01
2023-04-27T21:10:13.900Z,24.01
2023-04-27T21:15:16.122Z,23.82
2023-04-27T21:20:18.580Z,23.80
2023-04-27T21:25:22.999Z,23.48
2023-04-27T21:30:28.530Z,23.43
2023-04-27T21:35:31.285Z,23.20
2023-04-27T21:40:33.402Z,23.13
2023-04-27T21:45:36.182Z,23.18
2023-04-27T21:50:38.394Z,23.18
2023-04-27T21:55:40.717Z,23.10
2023-04-27T22:00:43.289Z,23.07
2023-04-27T22:05:45.839Z,22.97
2023-04-27T22:10:48.282Z,22.82
2023-04-27T22:15:50.339Z,22.53
2023-04-27T22:20:54.539Z,22.43
2023-04-27T22:25:56.565Z,22.37
2023-04-27T22:31:00.812Z,22.34
2023-04-27T22:36:02.952Z,22.33
2023-04-27T22:41:05.359Z,22.19
2023-04-27T22:46:07.760Z,22.31
2023-04-27T22:51:10.557Z,22.36
2023-04-27T22:56:12.932Z,22.30
2023-04-27T23:01:15.028Z,22.00
2023-04-27T23:06:17.078Z,21.83
2023-04-27T23:11:19.145Z,21.80
2023-04-27T23:16:21.951Z,21.80
2023-04-27T23:21:25.338Z,21.77
2023-04-27T23:26:27.180Z,21.73
2023-04-27T23:31:29.612Z,21.64
2023-04-27T23:36:31.789Z,21.35
2023-04-27T23:41:33.989Z,21.39
2023-04-27T23:46:36.276Z,21.37
2023-04-27T23:51:38.418Z,21.27
2023-04-27T23:56:40.932Z,21.14
